Time;durP1;ratioP1;P1;durP2;ratioP2;P2;SDS_P1;SDS_P2;PMS_P1;PMS_P2;Temp;Humidity;BMP_temperature;BMP_pressure;BME280_temperature;BME280_humidity;BME280_pressure;Samples;Min_cycle;Max_cycle;Signal;HPM_P1;HPM_P2
2020/12/19 00:01:17;;;;;;;10.93;5.45;;;6.60;99.90;;;4.89;89.28;101370.41;5013880;28;20041;-40
2020/12/19 00:03:44;;;;;;;10.95;5.75;;;6.60;99.90;;;4.91;88.98;101364.84;5013472;28;20124;-40
2020/12/19 00:06:12;;;;;;;10.27;5.20;;;6.60;99.90;;;4.81;88.61;101362.28;5030030;28;20063;-40
2020/12/19 00:08:39;;;;;;;10.10;5.13;;;6.60;99.90;;;4.79;88.48;101358.06;4997399;28;20511;-40
2020/12/19 00:11:07;;;;;;;11.50;5.63;;;6.60;99.90;;;4.74;89.49;101362.06;5013054;28;20044;-40
2020/12/19 00:13:34;;;;;;;;;;;6.50;99.90;;;4.85;89.19;101360.09;5030378;28;20037;-40
2020/12/19 00:16:01;;;;;;;11.30;5.30;;;6.50;99.90;;;4.82;89.05;101360.44;5013531;28;20391;-40
2020/12/19 00:18:29;;;;;;;9.27;5.10;;;6.50;99.90;;;4.78;88.88;101350.94;4997409;28;20045;-40
2020/12/19 00:20:56;;;;;;;9.82;5.38;;;6.50;99.90;;;4.76;88.79;101348.41;5013743;28;20497;-40
2020/12/19 00:23:24;;;;;;;8.95;5.18;;;6.50;99.90;;;4.87;89.49;101350.81;4997224;28;20052;-40
2020/12/19 00:25:51;;;;;;;12.63;5.10;;;6.50;99.90;;;4.87;88.78;101339.16;5013372;28;20124;-40
2020/12/19 00:28:19;;;;;;;9.82;5.80;;;6.60;99.90;;;4.85;89.15;101335.75;5046195;28;20536;-40
2020/12/19 00:30:46;;;;;;;9.30;4.65;;;6.60;99.90;;;4.75;88.50;101328.59;4997124;28;20037;-40
2020/12/19 00:33:13;;;;;;;9.23;5.05;;;6.50;99.90;;;4.75;89.37;101328.59;4999102;28;20049;-40
2020/12/19 00:35:40;;;;;;;12.18;5.18;;;6.50;99.90;;;4.72;89.73;101328.94;5017118;28;20038;-40
2020/12/19 00:38:08;;;;;;;11.07;6.20;;;6.50;99.90;;;4.78;89.28;101329.31;5017093;28;20061;-40
2020/12/19 00:40:35;;;;;;;11.18;5.50;;;6.50;99.90;;;4.85;89.66;101331.19;5000769;28;20393;-40
2020/12/19 00:43:02;;;;;;;10.15;5.78;;;6.50;99.90;;;4.82;89.33;101327.97;4984417;28;20095;-40
2020/12/19 00:45:30;;;;;;;10.40;5.80;;;6.50;99.90;;;4.79;88.85;101329.16;5016669;28;20047;-40
2020/12/19 00:47:57;;;;;;;11.55;5.85;;;6.50;99.90;;;4.71;88.63;101327.25;5033235;28;20053;-40
2020/12/19 00:50:25;;;;;;;7.65;4.72;;;6.40;99.90;;;4.62;89.10;101320.09;5000621;28;20041;-40
2020/12/19 00:52:52;;;;;;;9.82;4.80;;;6.40;99.90;;;4.61;88.84;101319.25;5033020;28;20045;-40
2020/12/19 00:55:19;;;;;;;10.55;5.35;;;6.40;99.90;;;4.59;89.99;101313.16;5016484;28;20061;-40
2020/12/19 00:57:46;;;;;;;9.50;4.97;;;6.40;99.90;;;4.59;90.22;101310.44;5000268;28;20100;-40
2020/12/19 01:00:14;;;;;;;8.43;5.17;;;6.40;99.90;;;4.61;89.82;101307.59;5033244;28;20049;-40
2020/12/19 01:02:41;;;;;;;11.73;5.50;;;6.40;99.90;;;4.66;89.78;101310.66;5016846;28;20037;-40
2020/12/19 01:05:13;;;;;;;11.63;5.78;;;6.40;99.90;;;4.63;89.69;101302.88;5001329;28;20470;-40
2020/12/19 01:07:41;;;;;;;12.45;4.88;;;6.40;99.90;;;4.71;89.82;101292.09;5032915;28;20044;-40
2020/12/19 01:10:11;;;;;;;9.93;5.57;;;6.40;99.90;;;4.68;89.15;101295.13;5016150;28;20048;-40
2020/12/19 01:12:39;;;;;;;11.32;6.00;;;6.40;99.90;;;4.80;89.27;101289.44;5000142;28;20038;-40
2020/12/19 01:15:08;;;;;;;8.73;4.93;;;6.50;99.90;;;4.78;89.10;101286.06;4999942;28;20059;-40
2020/12/19 01:17:40;;;;;;;9.38;4.57;;;6.50;99.90;;;4.84;88.59;101280.00;5032829;28;20095;-40
2020/12/19 01:20:07;;;;;;;10.88;5.28;;;6.50;99.90;;;4.81;89.24;101277.63;5032613;28;20136;-40
2020/12/19 01:22:34;;;;;;;10.53;4.93;;;6.50;99.90;;;4.81;89.46;101280.31;5016165;28;20128;-40
2020/12/19 01:25:02;;;;;;;9.15;4.82;;;6.50;99.90;;;4.81;89.60;101281.16;4999498;28;20045;-40
2020/12/19 01:27:29;;;;;;;10.02;5.00;;;6.60;99.90;;;4.82;89.28;101276.63;5032343;28;20041;-40
2020/12/19 01:29:57;;;;;;;10.68;5.35;;;6.50;99.90;;;4.85;88.83;101276.28;5032617;28;20470;-40
2020/12/19 01:32:24;;;;;;;9.73;5.07;;;6.60;99.90;;;4.82;89.12;101271.22;4999832;28;20045;-40
2020/12/19 01:34:51;;;;;;;10.18;5.05;;;6.50;99.90;;;4.75;89.51;101261.03;5048683;28;20057;-40
2020/12/19 01:37:22;;;;;;;9.63;5.25;;;6.50;99.90;;;4.77;89.25;101260.00;5032758;28;20049;-40
2020/12/19 01:39:49;;;;;;;9.67;5.37;;;6.50;99.90;;;4.87;89.29;101263.44;5032538;28;20140;-40
2020/12/19 01:42:17;;;;;;;10.48;5.05;;;6.50;99.90;;;4.87;89.49;101269.69;5015673;28;20053;-40
2020/12/19 01:44:44;;;;;;;10.55;5.35;;;6.60;99.90;;;4.84;89.26;101271.88;4982638;28;20045;-40
2020/12/19 01:47:16;;;;;;;9.53;4.77;;;6.60;99.90;;;4.99;88.64;101272.09;5032113;28;20052;-40
2020/12/19 01:49:43;;;;;;;9.85;4.82;;;6.60;99.90;;;4.88;88.92;101274.09;4999563;28;20052;-40
2020/12/19 01:52:11;;;;;;;7.95;5.10;;;6.60;99.90;;;4.83;89.61;101272.91;5015840;28;20461;-40
2020/12/19 01:54:39;;;;;;;10.77;5.10;;;6.60;99.90;;;4.76;89.80;101270.00;5015626;28;20037;-40
2020/12/19 01:57:12;;;;;;;8.57;5.18;;;6.50;99.90;;;4.79;89.14;101264.25;5015482;28;20057;-40
2020/12/19 01:59:40;;;;;;;9.75;5.00;;;6.50;99.90;;;4.86;89.91;101272.56;5031917;28;20124;-40
2020/12/19 02:02:10;;;;;;;9.25;4.85;;;6.50;99.90;;;4.84;89.25;101269.19;4999065;28;20041;-40
2020/12/19 02:04:38;;;;;;;9.00;4.97;;;6.50;99.90;;;4.82;89.49;101271.22;5031814;28;20400;-40
2020/12/19 02:07:06;;;;;;;9.40;4.90;;;6.50;99.90;;;4.76;89.34;101256.47;5031848;28;20422;-40
2020/12/19 02:09:39;;;;;;;8.57;4.85;;;6.50;99.90;;;4.72;89.84;101258.66;5031640;28;20433;-40
2020/12/19 02:12:09;;;;;;;9.63;4.90;;;6.50;99.90;;;4.71;89.77;101253.41;4982378;28;20515;-40
2020/12/19 02:14:38;;;;;;;9.05;4.80;;;6.50;99.90;;;4.72;90.29;101257.81;5015386;28;20047;-40
2020/12/19 02:17:09;;;;;;;9.57;4.80;;;6.40;99.90;;;4.69;89.88;101250.03;5031740;28;20075;-40
2020/12/19 02:19:38;;;;;;;9.25;5.25;;;6.40;99.90;;;4.66;90.50;101253.91;5031580;28;20049;-40
2020/12/19 02:22:09;;;;;;;10.27;5.47;;;6.40;99.90;;;4.63;90.08;101250.66;5015214;28;20041;-40
2020/12/19 02:24:37;;;;;;;9.82;5.53;;;6.40;99.90;;;4.56;90.43;101235.09;5014622;28;20049;-40
2020/12/19 02:27:05;;;;;;;9.40;4.97;;;6.30;99.90;;;4.58;90.73;101238.50;5014988;28;20037;-40
2020/12/19 02:29:33;;;;;;;10.48;5.53;;;6.30;99.90;;;4.59;90.65;101242.06;4998713;28;20095;-40
2020/12/19 02:32:02;;;;;;;9.38;5.53;;;6.30;99.90;;;4.60;91.03;101238.34;5015297;28;20048;-40
2020/12/19 02:34:30;;;;;;;9.40;5.30;;;6.30;99.90;;;4.54;90.14;101237.13;5030980;28;20069;-40
2020/12/19 02:36:57;;;;;;;8.13;4.50;;;6.30;99.90;;;4.51;90.37;101245.56;4998550;28;20129;-40
2020/12/19 02:39:25;;;;;;;10.23;5.73;;;6.30;99.90;;;4.52;91.12;101241.03;5014855;28;20538;-40
2020/12/19 02:41:52;;;;;;;10.43;5.65;;;6.30;99.90;;;4.56;90.83;101235.09;4982167;28;20042;-40
2020/12/19 02:44:21;;;;;;;;;;;6.30;99.90;;;4.60;91.59;101239.19;5014937;28;20083;-40
2020/12/19 02:46:49;;;;;;;9.45;4.43;;;6.30;99.90;;;4.64;91.11;101241.53;5014857;28;19921;-40
2020/12/19 02:49:19;;;;;;;9.75;5.15;;;6.30;99.90;;;4.70;91.29;101239.03;5014689;28;20558;-40
2020/12/19 02:51:47;;;;;;;10.23;5.30;;;6.40;99.90;;;4.68;90.43;101240.25;5030770;28;20519;-40
2020/12/19 02:54:15;;;;;;;10.23;5.25;;;6.40;99.90;;;4.66;90.19;101236.84;5014460;28;20044;-40
2020/12/19 02:56:42;;;;;;;9.77;5.03;;;6.40;99.90;;;4.60;90.67;101244.56;4997473;28;20038;-40
2020/12/19 02:59:10;;;;;;;13.53;5.03;;;6.40;99.90;;;4.55;90.51;101232.59;4998054;28;20064;-40
2020/12/19 03:01:37;;;;;;;10.23;5.47;;;6.40;99.90;;;4.57;91.20;101227.88;5014178;28;20467;-40
2020/12/19 03:04:05;;;;;;;11.63;5.73;;;6.30;99.90;;;4.56;90.90;101223.47;5046817;28;20445;-40
2020/12/19 03:06:34;;;;;;;8.55;4.68;;;6.30;99.90;;;4.58;91.22;101222.28;5014643;28;20574;-40
2020/12/19 03:09:04;;;;;;;10.07;5.10;;;6.30;99.90;;;4.61;91.13;101215.72;4998328;28;20569;-40
2020/12/19 03:11:31;;;;;;;10.07;5.30;;;6.40;99.90;;;4.62;90.94;101217.41;5029910;28;20034;-40
2020/12/19 03:13:59;;;;;;;10.35;5.82;;;6.40;99.90;;;4.61;91.06;101210.31;5014030;28;20045;-40
2020/12/19 03:16:26;;;;;;;12.05;5.78;;;6.40;99.90;;;4.64;91.14;101211.81;5030580;28;20112;-40
2020/12/19 03:18:53;;;;;;;10.43;5.27;;;6.40;99.90;;;4.57;90.92;101195.44;5014187;28;20507;-40
2020/12/19 03:21:22;;;;;;;9.50;5.35;;;6.40;99.90;;;4.65;90.72;101211.66;5013919;28;20451;-40
2020/12/19 03:23:50;;;;;;;9.63;5.40;;;6.40;99.90;;;4.63;90.97;101205.59;5030369;28;20099;-40
2020/12/19 03:26:17;;;;;;;13.25;5.78;;;6.40;99.90;;;4.66;91.22;101210.66;4997666;28;20046;-40
2020/12/19 03:28:45;;;;;;;11.60;6.17;;;6.40;99.90;;;4.66;90.75;101197.13;5014081;28;20125;-40
2020/12/19 03:31:12;;;;;;;11.05;6.00;;;6.40;99.90;;;4.69;91.04;101202.22;5014182;28;20492;-40
2020/12/19 03:33:40;;;;;;;11.18;6.15;;;6.40;99.90;;;4.71;91.06;101196.66;5030190;28;20045;-40
2020/12/19 03:36:07;;;;;;;13.52;6.78;;;6.40;99.90;;;4.71;90.80;101194.78;4997880;28;20061;-40
2020/12/19 03:38:35;;;;;;;12.82;6.53;;;6.40;99.90;;;4.88;90.46;101200.25;5030470;28;20049;-40
2020/12/19 03:41:03;;;;;;;11.43;6.18;;;6.50;99.90;;;4.87;90.36;101196.69;4997331;28;20049;-40
2020/12/19 03:43:30;;;;;;;11.68;6.25;;;6.60;99.90;;;4.90;89.94;101192.81;5030270;28;20057;-40
2020/12/19 03:45:58;;;;;;;11.60;6.10;;;6.60;99.90;;;4.89;89.81;101196.53;5013972;28;20049;-40
2020/12/19 03:48:25;;;;;;;12.02;6.38;;;6.60;99.90;;;4.89;89.69;101201.94;4997485;28;20037;-40
2020/12/19 03:50:53;;;;;;;13.37;6.70;;;6.60;99.90;;;4.86;89.92;101186.03;5013817;28;20448;-40
2020/12/19 03:53:21;;;;;;;;;;;6.60;99.90;;;4.86;89.49;101183.34;5014365;28;20038;-40
2020/12/19 03:55:48;;;;;;;12.75;6.18;;;6.60;99.90;;;4.88;89.57;101187.56;4997782;28;19928;-40
2020/12/19 03:58:16;;;;;;;13.15;6.82;;;6.60;99.90;;;4.90;89.50;101184.69;5013822;28;20041;-40
2020/12/19 04:00:43;;;;;;;10.90;6.15;;;6.60;99.90;;;4.83;89.97;101176.41;5013690;28;20043;-40
2020/12/19 04:03:11;;;;;;;12.25;6.13;;;6.60;99.90;;;4.81;90.19;101183.00;5013697;28;20160;-40
2020/12/19 04:05:38;;;;;;;14.73;6.60;;;6.60;99.90;;;4.87;90.12;101187.75;4997450;28;20041;-40
2020/12/19 04:08:05;;;;;;;12.60;6.87;;;6.50;99.90;;;4.83;89.65;101192.63;4999394;28;20060;-40
2020/12/19 04:10:33;;;;;;;12.05;6.45;;;6.60;99.90;;;4.74;90.17;101183.63;5016977;28;20821;-40
2020/12/19 04:13:01;;;;;;;12.52;6.70;;;6.50;99.90;;;4.72;90.07;101191.06;5034030;28;20049;-40
2020/12/19 04:15:28;;;;;;;14.60;6.73;;;6.50;99.90;;;4.66;90.37;101185.50;5017206;28;20457;-40
2020/12/19 04:17:55;;;;;;;13.07;6.60;;;6.40;99.90;;;4.71;89.69;101172.31;5017367;28;20152;-40
2020/12/19 04:20:23;;;;;;;14.80;6.75;;;6.40;99.90;;;4.64;89.69;101176.69;4985121;28;20101;-40
2020/12/19 04:22:51;;;;;;;12.70;6.32;;;6.40;99.90;;;4.72;90.48;101169.44;5017326;28;20124;-40
2020/12/19 04:25:18;;;;;;;12.70;6.93;;;6.40;99.90;;;4.72;90.89;101169.44;5016962;28;20574;-40
2020/12/19 04:27:46;;;;;;;14.05;6.35;;;6.40;99.90;;;4.70;90.05;101170.63;5033509;28;20111;-40
2020/12/19 04:30:13;;;;;;;12.38;6.65;;;6.40;99.90;;;4.63;90.43;101169.59;5050060;28;20071;-40
2020/12/19 04:32:41;;;;;;;13.73;7.53;;;6.40;99.90;;;4.57;90.64;101165.72;5017073;28;20385;-40
2020/12/19 04:35:09;;;;;;;13.15;7.18;;;6.30;99.90;;;4.51;91.08;101164.50;5016666;28;20573;-40
2020/12/19 04:37:37;;;;;;;11.02;6.53;;;6.30;99.90;;;4.50;90.65;101161.94;5017083;28;20123;-40
2020/12/19 04:40:05;;;;;;;12.13;7.15;;;6.20;99.90;;;4.44;90.63;101158.06;5017019;28;20042;-40
2020/12/19 04:42:36;;;;;;;12.45;7.05;;;6.20;99.90;;;4.43;90.94;101164.47;5034542;28;20045;-40
2020/12/19 04:45:05;;;;;;;11.88;6.43;;;6.20;99.90;;;4.39;90.95;101163.94;5016809;28;20512;-40
2020/12/19 04:47:33;;;;;;;13.70;6.53;;;6.20;99.90;;;4.40;90.82;101165.63;5016784;28;20463;-40
2020/12/19 04:50:02;;;;;;;15.15;7.13;;;6.20;99.90;;;4.39;90.91;101163.94;5000482;28;20491;-40
2020/12/19 04:52:29;;;;;;;14.02;7.03;;;6.20;99.90;;;4.46;90.77;101153.34;5049472;28;20567;-40
2020/12/19 04:54:57;;;;;;;16.15;7.43;;;6.20;99.90;;;4.45;91.40;101147.06;5032889;28;20045;-40
2020/12/19 04:57:24;;;;;;;15.13;7.17;;;6.20;99.90;;;4.49;91.04;101152.16;5016879;28;20069;-40
2020/12/19 04:59:52;;;;;;;12.90;7.27;;;6.20;99.90;;;4.43;91.39;101154.50;5000361;28;20450;-40
2020/12/19 05:02:20;;;;;;;12.63;6.97;;;6.20;99.90;;;4.45;91.28;101152.47;5016544;28;20099;-40
2020/12/19 05:04:47;;;;;;;13.73;6.97;;;6.20;99.90;;;4.42;90.94;101142.00;5016488;28;20049;-40
2020/12/19 05:07:15;;;;;;;11.90;6.53;;;6.20;99.90;;;4.41;90.97;101139.47;5049190;28;20569;-40
2020/12/19 05:09:44;;;;;;;14.55;7.15;;;6.20;99.90;;;4.46;91.48;101137.13;5000359;28;20462;-40
2020/12/19 05:12:13;;;;;;;14.40;7.55;;;6.20;99.90;;;4.44;91.29;101134.56;5016001;28;20107;-40
2020/12/19 05:14:41;;;;;;;12.85;6.65;;;6.20;99.90;;;4.44;91.21;101141.84;5016424;28;20411;-40
2020/12/19 05:17:09;;;;;;;12.05;6.78;;;6.20;99.90;;;4.49;91.30;101146.75;5000196;28;20045;-40
2020/12/19 05:19:36;;;;;;;12.25;6.93;;;6.20;99.90;;;4.54;91.16;101137.13;5031593;28;20041;-40
2020/12/19 05:22:04;;;;;;;11.68;6.53;;;6.30;99.90;;;4.52;91.15;101136.47;4983763;28;20095;-40
2020/12/19 05:24:34;;;;;;;14.70;6.80;;;6.20;99.90;;;4.67;91.45;101138.53;5015911;28;20411;-40
2020/12/19 05:27:05;;;;;;;12.75;6.68;;;6.30;99.90;;;4.72;90.92;101130.78;5033711;28;21085;-40
2020/12/19 05:29:37;;;;;;;15.02;7.15;;;6.40;99.90;;;4.77;90.78;101127.53;5033736;28;20053;-40
2020/12/19 05:32:04;;;;;;;14.07;7.45;;;6.40;99.90;;;4.84;90.48;101124.00;4999954;28;20044;-40
2020/12/19 05:34:32;;;;;;;12.80;6.85;;;6.50;99.90;;;4.78;90.28;101124.69;5033506;28;20439;-40
2020/12/19 05:37:01;;;;;;;11.85;6.72;;;6.50;99.90;;;4.73;90.76;101122.47;5016070;28;20042;-40
2020/12/19 05:39:29;;;;;;;12.02;6.95;;;6.40;99.90;;;4.82;90.47;101123.34;5016308;28;20045;-40
2020/12/19 05:41:56;;;;;;;15.00;7.47;;;6.50;99.90;;;4.80;90.55;101135.34;5016036;28;20476;-40
2020/12/19 05:44:24;;;;;;;14.18;7.47;;;6.50;99.90;;;4.89;90.44;101124.34;5015678;28;20132;-40
2020/12/19 05:46:51;;;;;;;15.00;6.93;;;6.60;99.90;;;4.86;90.15;101122.00;5032136;28;20042;-40
2020/12/19 05:49:21;;;;;;;;;;;6.60;99.90;;;4.88;90.01;101119.13;5032652;28;20053;-40
2020/12/19 05:51:55;;;;;;;17.10;7.38;;;6.60;99.90;;;4.95;89.73;101114.72;5016165;28;19953;-40
2020/12/19 05:54:24;;;;;;;15.52;7.28;;;6.60;99.90;;;4.98;89.96;101106.28;5015438;28;20045;-40
2020/12/19 05:56:55;;;;;;;13.70;7.20;;;6.70;99.90;;;4.94;89.54;101125.72;5031996;28;20095;-40
2020/12/19 05:59:22;;;;;;;10.73;6.22;;;6.70;99.90;;;4.98;89.84;101119.78;5015687;28;20136;-40
2020/12/19 06:01:50;;;;;;;14.18;7.53;;;6.70;99.90;;;5.00;89.50;101122.34;5015560;28;20533;-40
2020/12/19 06:04:19;;;;;;;13.45;7.05;;;6.70;99.90;;;5.02;89.13;101114.91;5015357;28;20485;-40
2020/12/19 06:06:48;;;;;;;13.32;7.22;;;6.70;99.90;;;5.03;89.24;101106.63;5015601;28;20041;-40
2020/12/19 06:09:17;;;;;;;14.00;7.07;;;6.70;99.90;;;5.08;89.50;101121.50;5032198;28;20042;-40
2020/12/19 06:12:00;;;;;;;12.48;7.07;;;6.70;99.90;;;4.98;89.57;101111.69;5047618;28;20500;-40
2020/12/19 06:14:35;;;;;;;14.07;7.57;;;6.70;99.90;;;4.98;89.78;101113.56;5032640;28;20175;-40
2020/12/19 06:17:15;;;;;;;13.45;7.07;;;6.70;99.90;;;4.89;89.90;101107.31;5031875;28;20455;-40
2020/12/19 06:19:48;;;;;;;12.60;7.10;;;6.60;99.90;;;4.87;89.76;101101.22;4999109;28;20132;-40
2020/12/19 06:22:15;;;;;;;13.43;6.85;;;6.60;99.90;;;4.85;90.35;101098.66;5015387;28;20467;-40
2020/12/19 06:24:47;;;;;;;14.88;6.90;;;6.60;99.90;;;4.95;89.80;101100.38;5031270;28;20523;-40
2020/12/19 06:27:26;;;;;;;14.02;7.22;;;6.60;99.90;;;4.92;89.94;101103.44;5015200;28;20054;-40
2020/12/19 06:29:53;;;;;;;12.90;6.95;;;6.60;99.90;;;4.93;89.50;101088.91;5032571;28;20041;-40
2020/12/19 06:32:26;;;;;;;14.05;7.30;;;6.60;99.90;;;4.92;89.86;101098.84;5047553;28;20044;-40
2020/12/19 06:35:05;;;;;;;13.45;6.95;;;6.60;99.90;;;4.94;90.21;101102.22;4998292;28;20068;-40
2020/12/19 06:37:36;;;;;;;13.48;7.22;;;6.60;99.90;;;4.89;90.27;101093.78;4998848;28;20045;-40
2020/12/19 06:40:18;;;;;;;11.57;6.38;;;6.60;99.90;;;4.91;90.21;101080.94;5015016;28;20527;-40
2020/12/19 06:43:09;;;;;;;13.82;7.05;;;6.60;99.90;;;4.98;90.39;101094.63;5031335;28;20104;-40
2020/12/19 06:45:37;;;;;;;12.23;6.80;;;6.70;99.90;;;4.92;90.07;101084.50;5014484;28;20137;-40
2020/12/19 06:48:34;;;;;;;11.90;6.72;;;6.70;99.90;;;5.03;90.58;101089.56;5030876;28;20622;-40
2020/12/19 06:51:04;;;;;;;14.30;7.95;;;6.70;99.90;;;5.08;90.26;101097.16;5014517;28;20049;-40
2020/12/19 06:53:33;;;;;;;12.98;7.25;;;6.70;99.90;;;5.11;89.90;101103.06;5014338;28;20045;-40
2020/12/19 06:56:20;;;;;;;16.60;6.70;;;6.80;99.90;;;5.09;90.20;101107.81;5030799;28;20045;-40
2020/12/19 06:59:01;;;;;;;13.82;6.72;;;6.80;99.90;;;5.03;90.29;101090.38;5030704;28;20060;-40
2020/12/19 07:01:30;;;;;;;14.02;6.93;;;6.70;99.90;;;4.94;90.28;101102.22;5030825;28;20053;-40
2020/12/19 07:03:58;;;;;;;12.52;7.00;;;6.70;99.90;;;4.99;90.81;101107.97;5031714;28;20049;-40
2020/12/19 07:06:25;;;;;;;16.20;7.87;;;6.70;99.90;;;4.94;90.77;101102.22;5030839;28;20045;-40
2020/12/19 07:08:52;;;;;;;13.43;7.43;;;6.70;99.90;;;4.93;91.05;101108.66;5030951;28;20115;-40
2020/12/19 07:11:40;;;;;;;15.40;7.55;;;6.60;99.90;;;4.93;91.40;101108.66;5014610;28;20091;-40
2020/12/19 07:14:17;;;;;;;13.40;7.43;;;6.60;99.90;;;4.94;91.57;101099.53;5030524;28;20049;-40
2020/12/19 07:16:56;;;;;;;13.30;7.13;;;6.70;99.90;;;4.92;91.62;101098.84;5014372;28;20045;-40
2020/12/19 07:19:28;;;;;;;15.50;8.43;;;6.60;99.90;;;4.90;91.44;101093.59;4998172;28;20629;-40
2020/12/19 07:21:58;;;;;;;13.38;7.20;;;6.60;99.90;;;4.88;91.88;101108.31;5014116;28;20541;-40
2020/12/19 07:24:25;;;;;;;15.52;7.75;;;6.60;99.90;;;4.89;91.75;101094.59;5030435;28;20038;-40
2020/12/19 07:26:53;;;;;;;16.25;7.57;;;6.60;99.90;;;4.88;91.53;101105.59;5030368;28;20037;-40
2020/12/19 07:29:24;;;;;;;13.38;7.40;;;6.60;99.90;;;4.94;91.31;101117.63;5030690;28;20041;-40
2020/12/19 07:31:55;;;;;;;12.02;6.82;;;6.60;99.90;;;4.95;91.52;101130.97;5014325;28;20120;-40
2020/12/19 07:34:23;;;;;;;15.40;7.38;;;6.60;99.90;;;5.00;91.66;101142.09;5014044;28;20546;-40
2020/12/19 07:36:53;;;;;;;14.18;6.68;;;6.70;99.90;;;5.02;91.22;101142.78;5030227;28;20037;-40
2020/12/19 07:39:23;;;;;;;13.68;7.60;;;6.70;99.90;;;5.07;91.21;101136.88;5030332;28;20077;-40
2020/12/19 07:42:10;;;;;;;13.50;6.63;;;6.70;99.90;;;5.12;90.98;101133.69;5031124;28;20049;-40
2020/12/19 07:44:39;;;;;;;12.75;6.82;;;6.80;99.90;;;5.13;91.13;101133.50;5020534;28;20099;-40
2020/12/19 07:47:15;;;;;;;13.88;7.22;;;6.80;99.90;;;5.21;91.08;101124.53;5020523;28;20561;-40
2020/12/19 07:49:46;;;;;;;13.60;7.45;;;6.90;99.90;;;5.25;90.73;101131.28;5020437;28;20516;-40
2020/12/19 07:52:27;;;;;;;14.43;7.50;;;6.90;99.90;;;5.26;90.82;101121.34;5037000;28;20408;-40
2020/12/19 07:55:07;;;;;;;12.45;7.32;;;6.90;99.90;;;5.31;90.51;101136.06;5036744;28;20053;-40
2020/12/19 07:57:34;;;;;;;14.13;7.22;;;6.90;99.90;;;5.35;90.30;101128.41;5037083;28;20041;-40
2020/12/19 08:00:03;;;;;;;16.85;8.32;;;7.00;99.90;;;5.38;90.13;101129.94;5020510;28;20100;-40
2020/12/19 08:02:37;;;;;;;13.00;6.82;;;7.00;99.90;;;5.41;90.27;101124.19;5036622;28;20103;-40
2020/12/19 08:05:05;;;;;;;14.65;7.70;;;7.00;99.90;;;5.42;90.29;101125.88;5036555;28;20045;-40
2020/12/19 08:07:32;;;;;;;14.37;7.20;;;7.00;99.90;;;5.53;90.11;101121.97;5020165;28;20530;-40
2020/12/19 08:10:13;;;;;;;14.65;7.47;;;7.10;99.90;;;5.55;90.30;101128.06;5038003;28;20063;-40
2020/12/19 08:12:41;;;;;;;13.80;7.20;;;7.20;99.90;;;5.70;89.61;101123.66;5036663;28;20524;-40
2020/12/19 08:15:20;;;;;;;14.02;7.22;;;7.30;99.90;;;5.70;89.22;101104.69;5019904;28;20054;-40
2020/12/19 08:17:56;;;;;;;13.30;7.60;;;7.30;99.90;;;5.71;89.67;101097.41;5036565;28;20523;-40
2020/12/19 08:20:36;;;;;;;13.52;7.65;;;7.30;99.90;;;5.73;89.42;101098.06;5037944;28;20053;-40
2020/12/19 08:23:07;;;;;;;11.10;6.55;;;7.30;99.90;;;5.73;89.28;101093.50;5020143;28;20057;-40
2020/12/19 08:25:37;;;;;;;13.40;7.07;;;7.40;99.90;;;5.81;89.24;101086.38;5052687;28;20095;-40
2020/12/19 08:28:05;;;;;;;13.43;7.38;;;7.40;99.90;;;5.85;89.15;101085.88;5020264;28;20464;-40
2020/12/19 08:30:33;;;;;;;12.77;7.20;;;7.50;99.90;;;5.96;88.75;101083.78;5036404;28;20109;-40
2020/12/19 08:33:07;;;;;;;13.02;7.22;;;7.50;99.90;;;5.96;88.17;101086.47;5053147;28;20064;-40
2020/12/19 08:35:40;;;;;;;11.38;6.43;;;7.50;99.90;;;6.01;88.22;101092.25;5036289;28;20137;-40
2020/12/19 08:41:02;;;;;;;13.13;7.05;;;7.60;99.90;;;6.12;87.87;101088.31;5037370;28;20049;-40
2020/12/19 08:43:34;;;;;;;11.52;6.47;;;7.70;99.90;;;6.21;87.72;101095.38;5037499;28;20045;-40
2020/12/19 08:46:13;;;;;;;13.60;7.18;;;7.80;99.90;;;6.26;87.44;101101.13;5020209;28;20120;-40
2020/12/19 08:48:42;;;;;;;12.57;6.70;;;7.80;99.90;;;6.33;87.19;101102.09;5052984;28;20135;-40
2020/12/19 08:53:49;;;;;;;12.48;7.25;;;7.90;99.90;;;6.44;86.78;101102.69;5036118;28;20042;-40
2020/12/19 08:56:25;;;;;;;12.45;6.82;;;8.00;99.90;;;6.50;86.46;101101.16;5049661;28;20049;-40
2020/12/19 08:58:55;;;;;;;11.85;6.93;;;8.10;99.90;;;6.54;86.09;101110.59;5034267;28;20466;-40
2020/12/19 09:01:23;;;;;;;10.63;6.30;;;8.10;99.90;;;6.51;86.62;101114.53;5033035;28;20490;-40
2020/12/19 09:03:52;;;;;;;15.50;6.97;;;8.10;99.90;;;6.56;86.64;101103.13;5016488;28;20538;-40
2020/12/19 09:06:20;;;;;;;12.48;6.50;;;8.20;99.90;;;6.63;86.19;101106.84;5016927;28;20099;-40
2020/12/19 09:08:48;;;;;;;12.90;6.95;;;8.20;99.90;;;6.69;85.97;101100.69;5032879;28;20470;-40
2020/12/19 09:11:28;;;;;;;11.13;6.80;;;8.20;99.90;;;6.74;85.92;101109.13;5033899;28;20069;-40
2020/12/19 09:14:08;;;;;;;12.48;6.72;;;8.30;99.90;;;6.87;85.54;101107.66;5032698;28;20037;-40
2020/12/19 09:16:47;;;;;;;12.15;6.38;;;8.40;99.90;;;6.89;85.29;101117.31;5034183;28;20037;-40
2020/12/19 09:19:17;;;;;;;12.65;6.18;;;8.40;99.90;;;6.98;84.89;101119.97;5033008;28;20053;-40
2020/12/19 09:22:03;;;;;;;11.80;6.28;;;8.50;99.90;;;7.05;84.89;101120.94;5032557;28;20069;-40
2020/12/19 09:24:31;;;;;;;10.25;5.88;;;8.60;99.90;;;7.10;84.42;101121.25;5032337;28;20128;-40
2020/12/19 09:26:58;;;;;;;11.40;6.47;;;8.60;99.90;;;7.15;84.42;101118.81;5016266;28;20038;-40
2020/12/19 09:29:26;;;;;;;12.45;6.65;;;8.70;99.90;;;7.23;84.08;101112.47;5016212;28;20061;-40
2020/12/19 09:31:53;;;;;;;12.77;5.88;;;8.80;99.90;;;7.31;83.75;101122.44;5016103;28;20048;-40
2020/12/19 09:34:20;;;;;;;10.82;6.30;;;8.80;99.90;;;7.36;83.79;101124.56;5032115;28;20593;-40
2020/12/19 09:36:49;;;;;;;10.57;5.55;;;8.90;99.90;;;7.44;83.28;101113.66;5032563;28;20049;-40
2020/12/19 09:39:16;;;;;;;11.18;5.95;;;8.90;99.90;;;7.47;83.70;101118.72;5032430;28;20049;-40
2020/12/19 09:41:43;;;;;;;12.40;5.97;;;9.00;99.90;;;7.52;83.20;101113.56;5015887;28;20042;-40
2020/12/19 09:44:10;;;;;;;11.75;5.85;;;9.00;99.90;;;7.59;83.04;101122.66;5032020;28;20520;-40
2020/12/19 09:46:38;;;;;;;11.57;6.18;;;9.10;99.90;;;7.70;82.65;101121.34;5033375;28;20057;-40
2020/12/19 09:49:05;;;;;;;10.52;6.18;;;9.20;99.90;;;7.72;82.80;101110.31;5015822;28;20522;-40
2020/12/19 09:51:32;;;;;;;12.35;6.00;;;9.20;99.90;;;7.83;81.65;101114.44;5032381;28;20042;-40
2020/12/19 09:54:00;;;;;;;10.55;6.20;;;9.30;99.90;;;7.86;81.98;101122.22;5031617;28;20040;-40
2020/12/19 09:56:27;;;;;;;10.13;5.38;;;9.30;99.90;;;7.88;81.38;101110.09;5032095;28;20502;-40
2020/12/19 09:58:54;;;;;;;10.38;5.78;;;9.40;99.90;;;7.94;81.44;101124.81;5032030;28;20041;-40
2020/12/19 10:01:21;;;;;;;9.80;5.30;;;9.40;99.90;;;7.97;81.44;101118.19;5048493;28;20065;-40
2020/12/19 10:03:48;;;;;;;10.05;5.57;;;9.50;99.90;;;8.02;80.95;101121.19;5015671;28;20041;-40
2020/12/19 10:06:15;;;;;;;10.35;4.85;;;9.50;99.90;;;8.06;80.55;101119.75;5032733;28;20041;-40
2020/12/19 10:08:42;;;;;;;9.73;5.50;;;9.50;99.90;;;8.07;80.44;101114.13;5031925;28;20037;-40
2020/12/19 10:11:09;;;;;;;9.15;4.93;;;9.60;99.90;;;8.13;80.61;101111.72;5048230;28;20404;-40
2020/12/19 10:13:36;;;;;;;10.07;5.75;;;9.60;99.90;;;8.15;80.54;101109.63;5032662;28;20061;-40
2020/12/19 10:16:05;;;;;;;9.23;5.22;;;9.60;99.90;;;8.18;80.58;101103.81;5032780;28;20079;-40
2020/12/19 10:18:32;;;;;;;10.60;5.43;;;9.70;99.90;;;8.27;80.50;101105.38;5032858;28;20072;-40
2020/12/19 10:21:00;;;;;;;10.45;5.55;;;9.70;99.90;;;8.34;80.42;101111.75;5031445;28;20055;-40
2020/12/19 10:23:29;;;;;;;11.35;5.70;;;9.80;99.90;;;8.39;79.97;101111.19;5031515;28;20051;-40
2020/12/19 10:25:56;;;;;;;9.60;5.35;;;9.80;99.90;;;8.38;80.19;101098.63;5015492;28;20075;-40
2020/12/19 10:28:24;;;;;;;8.10;4.63;;;9.90;99.90;;;8.47;79.49;101100.19;5015037;28;20072;-40
2020/12/19 10:30:51;;;;;;;10.18;5.88;;;10.00;99.90;;;8.51;79.35;101097.13;5032721;28;20095;-40
2020/12/19 10:33:18;;;;;;;9.88;4.57;;;10.00;99.90;;;8.53;79.72;101100.50;5032656;28;20066;-40
2020/12/19 10:35:47;;;;;;;7.68;4.63;;;10.00;99.90;;;8.57;79.00;101090.91;5031340;28;20041;-40